createdAt,value
2022-08-30T00:02:01.133Z,101231.34
2022-08-30T00:04:27.714Z,101197.06
2022-08-30T00:06:54.341Z,101221.69
2022-08-30T00:09:20.822Z,101227.00
2022-08-30T00:11:47.415Z,101143.22
2022-08-30T00:14:13.844Z,101225.94
2022-08-30T00:16:40.274Z,101205.91
2022-08-30T00:19:06.807Z,101238.22
2022-08-30T00:21:33.319Z,101238.22
2022-08-30T00:23:59.980Z,101247.69
2022-08-30T00:26:26.427Z,101237.38
2022-08-30T00:28:52.972Z,101232.91
2022-08-30T00:31:19.509Z,101234.06
2022-08-30T00:33:45.980Z,101062.50
2022-08-30T00:36:12.411Z,101134.56
2022-08-30T00:38:38.866Z,101224.72
2022-08-30T00:41:05.446Z,101248.56
2022-08-30T00:43:34.834Z,101239.22
2022-08-30T00:46:07.598Z,101235.78
2022-08-30T00:48:38.068Z,101235.97
2022-08-30T00:51:10.610Z,101235.22
2022-08-30T00:53:42.106Z,101133.22
2022-08-30T00:56:10.141Z,101204.47
2022-08-30T00:58:40.113Z,101224.53
2022-08-30T01:01:07.547Z,101237.31
2022-08-30T01:03:35.932Z,101240.56
2022-08-30T01:06:04.644Z,101150.19
2022-08-30T01:08:31.078Z,101209.84
2022-08-30T01:10:58.333Z,101241.31
2022-08-30T01:13:26.863Z,101248.00
2022-08-30T01:15:54.678Z,101248.78
2022-08-30T01:18:24.066Z,101200.31
2022-08-30T01:21:07.239Z,101207.16
2022-08-30T01:23:36.344Z,101231.59
2022-08-30T01:26:05.989Z,101248.38
2022-08-30T01:28:33.552Z,101125.41
2022-08-30T01:31:01.395Z,101164.47
2022-08-30T01:33:28.074Z,101247.19
2022-08-30T01:35:59.124Z,101162.53
2022-08-30T01:38:33.818Z,101233.47
2022-08-30T01:41:08.616Z,101223.19
2022-08-30T01:43:35.156Z,101249.50
2022-08-30T01:46:02.812Z,101165.22
2022-08-30T01:48:31.015Z,101233.84
2022-08-30T01:50:58.689Z,101252.81
2022-08-30T01:53:25.599Z,101169.53
2022-08-30T01:55:52.027Z,101237.84
2022-08-30T01:58:18.536Z,101226.50
2022-08-30T02:00:45.167Z,101113.69
2022-08-30T02:03:12.337Z,101199.16
2022-08-30T02:05:39.128Z,101208.06
2022-08-30T02:08:05.747Z,101241.44
2022-08-30T02:10:32.508Z,101179.88
2022-08-30T02:12:59.460Z,101246.81
2022-08-30T02:15:26.265Z,101233.81
2022-08-30T02:17:52.801Z,101239.22
2022-08-30T02:20:19.797Z,101246.50
2022-08-30T02:22:48.121Z,101241.91
2022-08-30T02:25:20.701Z,101236.09
2022-08-30T02:27:48.050Z,101220.19
2022-08-30T02:30:14.562Z,101213.91
2022-08-30T02:32:41.510Z,101151.13
2022-08-30T02:35:08.402Z,101241.41
2022-08-30T02:37:35.072Z,101150.75
2022-08-30T02:40:01.633Z,101212.53
2022-08-30T02:42:28.121Z,101093.00
2022-08-30T02:44:54.537Z,101233.88
2022-08-30T02:47:21.055Z,101224.94
2022-08-30T02:49:47.414Z,101223.78
2022-08-30T02:52:13.852Z,101202.63
2022-08-30T02:54:40.300Z,101226.25
2022-08-30T02:57:07.464Z,101084.03
2022-08-30T02:59:47.841Z,101189.00
2022-08-30T03:02:14.432Z,101225.31
2022-08-30T03:04:41.120Z,101207.25
2022-08-30T03:07:08.397Z,101214.66
2022-08-30T03:09:36.319Z,101198.84
2022-08-30T03:12:03.222Z,101114.44
2022-08-30T03:14:29.686Z,101212.03
2022-08-30T03:16:56.192Z,101082.97
2022-08-30T03:19:22.946Z,101196.03
2022-08-30T03:21:50.373Z,101164.38
2022-08-30T03:24:17.330Z,101186.16
2022-08-30T03:26:46.365Z,101113.38
2022-08-30T03:29:13.341Z,101223.28
2022-08-30T03:31:40.661Z,101216.25
2022-08-30T03:34:21.958Z,101216.25
2022-08-30T03:36:49.348Z,101111.16
2022-08-30T03:39:15.813Z,101166.09
2022-08-30T03:41:42.227Z,101202.31
2022-08-30T03:44:09.041Z,101128.66
2022-08-30T03:46:37.432Z,101213.22
2022-08-30T03:49:05.116Z,101104.94
2022-08-30T03:51:33.069Z,101211.63
2022-08-30T03:54:00.343Z,101156.72
2022-08-30T03:56:28.706Z,101169.72
2022-08-30T03:58:55.296Z,101185.34
2022-08-30T04:01:21.727Z,101212.97
2022-08-30T04:03:48.168Z,101197.38
2022-08-30T04:06:14.735Z,101194.13
2022-08-30T04:08:43.296Z,101211.25
2022-08-30T04:11:12.839Z,101224.84
2022-08-30T04:13:39.321Z,101134.34
2022-08-30T04:16:06.105Z,101207.00
2022-08-30T04:18:32.566Z,101130.03
2022-08-30T04:20:59.016Z,101123.16
2022-08-30T04:23:27.548Z,101211.38
2022-08-30T04:25:54.482Z,101099.66
2022-08-30T04:28:25.763Z,101119.50
2022-08-30T04:30:52.274Z,101226.16
2022-08-30T04:33:19.206Z,101130.41
2022-08-30T04:35:49.239Z,101153.75
2022-08-30T04:38:17.224Z,101230.03
2022-08-30T04:40:45.677Z,101230.03
2022-08-30T04:43:13.068Z,101221.56
2022-08-30T04:45:41.249Z,101161.28
2022-08-30T04:48:08.453Z,101237.06
2022-08-30T04:50:34.977Z,101195.22
2022-08-30T04:53:01.513Z,101079.72
2022-08-30T04:55:28.204Z,101181.22
2022-08-30T04:57:55.056Z,101230.50
2022-08-30T05:00:21.792Z,101157.16
2022-08-30T05:02:49.116Z,101057.00
2022-08-30T05:05:34.955Z,101173.66
2022-08-30T05:08:05.186Z,101264.34
2022-08-30T05:10:41.615Z,101136.16
2022-08-30T05:13:10.802Z,101181.34
2022-08-30T05:15:39.599Z,101200.94
2022-08-30T05:18:08.458Z,101052.69
2022-08-30T05:20:43.698Z,101060.28
2022-08-30T05:23:10.810Z,101133.59
2022-08-30T05:25:40.855Z,101190.41
2022-08-30T05:28:07.903Z,101251.13
2022-08-30T05:30:36.539Z,101276.06
2022-08-30T05:33:03.475Z,101075.53
2022-08-30T05:35:29.945Z,101188.25
2022-08-30T05:38:06.771Z,101205.25
2022-08-30T05:40:33.630Z,101086.09
2022-08-30T05:43:00.318Z,101169.53
2022-08-30T05:45:27.120Z,101234.09
2022-08-30T05:48:04.653Z,101040.91
2022-08-30T05:50:35.854Z,101235.41
2022-08-30T05:53:04.660Z,101142.50
2022-08-30T05:55:31.318Z,101085.31
2022-08-30T05:58:00.278Z,101179.31
2022-08-30T06:00:27.023Z,101193.91
2022-08-30T06:02:54.830Z,101049.38
2022-08-30T06:05:21.482Z,101253.53
2022-08-30T06:07:49.575Z,101128.97
2022-08-30T06:10:16.822Z,101078.81
2022-08-30T06:12:44.058Z,101167.81
2022-08-30T06:15:11.393Z,101215.22
2022-08-30T06:17:39.732Z,101085.69
2022-08-30T06:20:09.699Z,101133.38
2022-08-30T06:22:36.495Z,101232.16
2022-08-30T06:25:06.970Z,101102.00
2022-08-30T06:27:33.615Z,101070.78
2022-08-30T06:30:00.038Z,101266.72
2022-08-30T06:32:26.629Z,101257.72
2022-08-30T06:34:53.551Z,101184.66
2022-08-30T06:37:21.958Z,101241.19
2022-08-30T06:39:57.608Z,101278.72
2022-08-30T06:42:31.720Z,101209.53
2022-08-30T06:45:01.239Z,101272.31
2022-08-30T06:47:29.293Z,101265.09
2022-08-30T06:49:58.799Z,101216.75
2022-08-30T06:52:25.487Z,101233.03
2022-08-30T06:54:54.362Z,101274.94
2022-08-30T06:57:20.881Z,101211.03
2022-08-30T06:59:47.425Z,101276.22
2022-08-30T07:02:16.265Z,101201.50
2022-08-30T07:04:42.734Z,101278.06
2022-08-30T07:07:11.727Z,101254.22
2022-08-30T07:09:43.232Z,101200.03
2022-08-30T07:12:11.123Z,101213.69
2022-08-30T07:14:40.051Z,101197.72
2022-08-30T07:17:34.545Z,101083.34
2022-08-30T07:20:01.865Z,101166.75
2022-08-30T07:22:28.964Z,101259.59
2022-08-30T07:24:55.856Z,101205.75
2022-08-30T07:27:23.424Z,101200.25
2022-08-30T07:29:50.093Z,101169.69
2022-08-30T07:32:20.195Z,101288.06
2022-08-30T07:34:46.649Z,101179.50
2022-08-30T07:37:18.050Z,101156.28
2022-08-30T07:39:47.993Z,101127.41
2022-08-30T07:42:15.419Z,101260.00
2022-08-30T07:44:42.240Z,101262.34
2022-08-30T07:47:08.849Z,101262.75
2022-08-30T07:49:36.902Z,101273.56
2022-08-30T07:52:04.478Z,101239.22
2022-08-30T07:54:31.017Z,101272.69
2022-08-30T07:56:57.493Z,101194.84
2022-08-30T07:59:23.980Z,101257.44
2022-08-30T08:01:50.765Z,101216.66
2022-08-30T08:04:19.397Z,101275.69
2022-08-30T08:06:46.180Z,101171.59
2022-08-30T08:09:12.729Z,101241.47
2022-08-30T08:11:41.318Z,101206.19
2022-08-30T08:14:08.167Z,101274.50
2022-08-30T08:16:36.494Z,101237.69
2022-08-30T08:19:04.940Z,101257.53
2022-08-30T08:21:31.543Z,101229.81
2022-08-30T08:23:58.015Z,101305.97
2022-08-30T08:26:24.681Z,101297.00
2022-08-30T08:28:51.191Z,101124.81
2022-08-30T08:31:33.131Z,101304.03
2022-08-30T08:36:30.266Z,101295.66
2022-08-30T08:38:56.805Z,101155.72
2022-08-30T08:41:26.355Z,101304.63
2022-08-30T08:43:54.229Z,101231.56
2022-08-30T08:46:26.787Z,101296.72
2022-08-30T08:49:01.458Z,101293.28
2022-08-30T08:51:51.358Z,101235.94
2022-08-30T08:54:36.617Z,101302.44
2022-08-30T08:57:03.416Z,101134.34
2022-08-30T08:59:29.994Z,101183.41
2022-08-30T09:02:03.156Z,101299.34
2022-08-30T09:04:37.828Z,101265.28
2022-08-30T09:07:21.737Z,101234.53
2022-08-30T09:09:48.446Z,101212.78
2022-08-30T09:12:15.098Z,101181.09
2022-08-30T09:14:59.176Z,101098.41
2022-08-30T09:17:26.630Z,101300.13
2022-08-30T09:19:53.143Z,101297.13
2022-08-30T09:22:36.096Z,101287.72
2022-08-30T09:25:17.194Z,101267.81
2022-08-30T09:27:49.105Z,101272.75
2022-08-30T09:30:21.206Z,101257.31
2022-08-30T09:32:54.353Z,101245.97
2022-08-30T09:35:48.459Z,101274.41
2022-08-30T09:38:25.995Z,101283.94
2022-08-30T09:40:58.693Z,101208.22
2022-08-30T09:43:33.601Z,101281.25
2022-08-30T09:46:00.187Z,101278.63
2022-08-30T09:48:44.080Z,101278.41
2022-08-30T09:51:39.096Z,101279.97
2022-08-30T09:54:18.633Z,101270.28
2022-08-30T09:57:14.228Z,101183.97
2022-08-30T10:00:01.502Z,101282.34
2022-08-30T10:03:04.622Z,101283.47
2022-08-30T10:05:35.566Z,101288.16
2022-08-30T10:08:07.134Z,101261.41
2022-08-30T10:11:00.630Z,101240.69
2022-08-30T10:13:56.666Z,101284.03
2022-08-30T10:16:45.130Z,101274.69
2022-08-30T10:19:25.143Z,101274.81
2022-08-30T10:22:24.805Z,101175.56
2022-08-30T10:25:16.230Z,101276.44
2022-08-30T10:27:55.394Z,101284.59
2022-08-30T10:30:26.098Z,101203.63
2022-08-30T10:33:02.597Z,101251.16
2022-08-30T10:35:38.819Z,101191.69
2022-08-30T10:38:37.101Z,101282.28
2022-08-30T10:41:18.630Z,101276.66
2022-08-30T10:43:45.861Z,101275.72
2022-08-30T10:47:01.102Z,101271.56
2022-08-30T10:49:32.923Z,101249.91
2022-08-30T10:52:08.576Z,101264.47
2022-08-30T10:54:41.047Z,101275.72
2022-08-30T10:57:07.485Z,101243.19
2022-08-30T10:59:40.617Z,101174.56
2022-08-30T11:02:39.577Z,101116.66
2022-08-30T11:05:15.093Z,101272.81
2022-08-30T11:08:20.412Z,101271.78
2022-08-30T11:11:17.476Z,101260.78
2022-08-30T11:13:53.489Z,101260.03
2022-08-30T11:16:37.386Z,101268.59
2022-08-30T11:19:21.336Z,101081.97
2022-08-30T11:21:59.651Z,101193.78
2022-08-30T11:24:26.157Z,101150.34
2022-08-30T11:27:36.436Z,101257.25
2022-08-30T11:33:11.781Z,101253.34
2022-08-30T11:35:50.027Z,101261.91
2022-08-30T11:38:25.591Z,101255.25
2022-08-30T11:41:00.305Z,101251.84
2022-08-30T11:43:36.520Z,101260.38
2022-08-30T11:46:26.991Z,101170.97
2022-08-30T11:49:15.055Z,101236.75
2022-08-30T11:52:23.869Z,101258.31
2022-08-30T11:55:15.539Z,101235.25
2022-08-30T11:58:12.726Z,101253.69
2022-08-30T12:00:42.745Z,101242.91
2022-08-30T12:03:16.230Z,101235.03
2022-08-30T12:06:04.095Z,101235.25
2022-08-30T12:08:34.074Z,101230.94
2022-08-30T12:11:14.260Z,101059.94
2022-08-30T12:13:49.212Z,101223.59
2022-08-30T12:16:21.767Z,101064.72
2022-08-30T12:18:50.983Z,101120.50
2022-08-30T12:21:21.282Z,101223.75
2022-08-30T12:23:57.212Z,101225.25
2022-08-30T12:26:26.680Z,101235.50
2022-08-30T12:29:23.119Z,101230.84
2022-08-30T12:32:06.005Z,101223.38
2022-08-30T12:34:35.560Z,101223.38
2022-08-30T12:37:04.761Z,101213.75
2022-08-30T12:39:37.533Z,101115.03
2022-08-30T12:42:23.107Z,101096.31
2022-08-30T12:44:57.857Z,101023.22
2022-08-30T12:47:42.030Z,101216.00
2022-08-30T12:50:15.352Z,101144.44
2022-08-30T12:52:46.246Z,101202.63
2022-08-30T12:55:19.516Z,101208.78
2022-08-30T12:58:00.620Z,101220.72
2022-08-30T13:00:38.455Z,101214.34
2022-08-30T13:03:25.960Z,101209.78
2022-08-30T13:05:57.490Z,101202.53
2022-08-30T13:08:38.476Z,101199.13
2022-08-30T13:11:09.336Z,101039.00
2022-08-30T13:13:52.714Z,101198.72
2022-08-30T13:16:22.536Z,101199.56
2022-08-30T13:19:15.907Z,101192.16
2022-08-30T13:22:00.965Z,101140.00
2022-08-30T13:24:28.497Z,101197.53
2022-08-30T13:27:04.437Z,101044.97
2022-08-30T13:29:31.911Z,101178.38
2022-08-30T13:31:58.536Z,101071.13
2022-08-30T13:34:26.758Z,101012.16
2022-08-30T13:36:59.312Z,101015.19
2022-08-30T13:39:37.903Z,101030.50
2022-08-30T13:44:54.009Z,101000.06
2022-08-30T13:47:37.162Z,100984.22
2022-08-30T13:50:07.908Z,101167.63
2022-08-30T13:52:36.283Z,101148.00
2022-08-30T13:55:02.879Z,101140.91
2022-08-30T14:00:21.375Z,101119.91
2022-08-30T14:02:55.002Z,101158.56
2022-08-30T14:06:04.632Z,101161.09
2022-08-30T14:11:19.351Z,101087.13
2022-08-30T14:16:35.799Z,101046.88
2022-08-30T14:19:03.247Z,101150.13
2022-08-30T14:21:29.981Z,101155.63
2022-08-30T14:23:58.051Z,100977.19
2022-08-30T14:26:36.691Z,101140.00
2022-08-30T14:29:09.205Z,101089.28
2022-08-30T14:31:39.800Z,100992.56
2022-08-30T14:34:08.066Z,100961.88
2022-08-30T14:36:36.969Z,101083.56
2022-08-30T14:39:08.390Z,101135.47
2022-08-30T14:41:39.005Z,101084.78
2022-08-30T14:44:10.615Z,101149.47
2022-08-30T14:46:37.263Z,101130.81
2022-08-30T14:49:03.815Z,101092.38
2022-08-30T14:51:32.420Z,101121.41
2022-08-30T14:54:00.362Z,101119.41
2022-08-30T14:56:26.897Z,101113.91
2022-08-30T14:59:00.122Z,101114.22
2022-08-30T15:01:28.200Z,101112.34
2022-08-30T15:03:55.094Z,101033.41
2022-08-30T15:06:22.187Z,101111.81
2022-08-30T15:08:48.759Z,101101.22
2022-08-30T15:11:17.446Z,101044.44
2022-08-30T15:13:46.894Z,101038.34
2022-08-30T15:16:20.546Z,101088.91
2022-08-30T15:18:47.874Z,101109.09
2022-08-30T15:21:15.008Z,101035.34
2022-08-30T15:23:41.617Z,100989.63
2022-08-30T15:26:10.947Z,100972.00
2022-08-30T15:28:37.710Z,101004.09
2022-08-30T15:31:08.737Z,101002.31
2022-08-30T15:33:36.372Z,101011.06
2022-08-30T15:36:04.882Z,101045.91
2022-08-30T15:38:32.353Z,100997.16
2022-08-30T15:41:03.594Z,101043.91
2022-08-30T15:43:31.549Z,101080.16
2022-08-30T15:46:32.317Z,101084.34
2022-08-30T15:49:11.354Z,100997.25
2022-08-30T15:51:41.678Z,100920.75
2022-08-30T15:54:18.652Z,100990.16
2022-08-30T15:56:48.474Z,101086.38
2022-08-30T15:59:16.596Z,101006.38
2022-08-30T16:01:49.555Z,100938.06
2022-08-30T16:04:18.393Z,101006.13
2022-08-30T16:06:45.658Z,101075.22
2022-08-30T16:09:12.520Z,101006.09
2022-08-30T16:11:39.097Z,101037.88
2022-08-30T16:14:07.094Z,100999.00
2022-08-30T16:16:35.232Z,101040.22
2022-08-30T16:19:01.861Z,101069.50
2022-08-30T16:21:31.197Z,101017.13
2022-08-30T16:24:00.297Z,101061.16
2022-08-30T16:26:28.086Z,101075.06
2022-08-30T16:29:00.797Z,101071.09
2022-08-30T16:31:31.680Z,101056.00
2022-08-30T16:34:02.573Z,101041.13
2022-08-30T16:36:32.269Z,101003.97
2022-08-30T16:39:01.974Z,100917.94
2022-08-30T16:41:33.893Z,101070.41
2022-08-30T16:44:03.769Z,101067.31
2022-08-30T16:46:33.446Z,101052.94
2022-08-30T16:49:03.535Z,101054.09
2022-08-30T16:51:32.294Z,101057.50
2022-08-30T16:54:01.573Z,101072.84
2022-08-30T16:56:30.069Z,101074.97
2022-08-30T16:59:02.087Z,101075.50
2022-08-30T17:01:34.838Z,101037.88
2022-08-30T17:04:02.610Z,101047.25
2022-08-30T17:06:32.289Z,101023.66
2022-08-30T17:08:58.759Z,101004.66
2022-08-30T17:11:25.681Z,101072.50
2022-08-30T17:13:52.940Z,101042.13
2022-08-30T17:16:22.753Z,101079.03
2022-08-30T17:18:54.630Z,101043.56
2022-08-30T17:21:21.022Z,101075.06
2022-08-30T17:23:48.558Z,101056.00
2022-08-30T17:26:16.505Z,101054.59
2022-08-30T17:28:43.226Z,101049.72
2022-08-30T17:31:10.763Z,101072.38
2022-08-30T17:33:39.732Z,101084.16
2022-08-30T17:36:07.389Z,101098.78
2022-08-30T17:38:33.904Z,101076.63
2022-08-30T17:41:06.471Z,101074.63
2022-08-30T17:43:34.877Z,101041.38
2022-08-30T17:46:10.456Z,101086.53
2022-08-30T17:48:37.848Z,101110.94
2022-08-30T17:51:05.432Z,101059.78
2022-08-30T17:53:32.486Z,101086.09
2022-08-30T17:55:59.133Z,101104.94
2022-08-30T17:58:26.550Z,101106.19
2022-08-30T18:00:56.006Z,101093.47
2022-08-30T18:03:22.501Z,101105.06
2022-08-30T18:05:49.785Z,101092.31
2022-08-30T18:08:16.354Z,101119.94
2022-08-30T18:10:42.924Z,101131.28
2022-08-30T18:13:09.451Z,101068.34
2022-08-30T18:15:35.861Z,101134.22
2022-08-30T18:18:02.321Z,101130.78
2022-08-30T18:20:31.930Z,101099.47
2022-08-30T18:22:58.506Z,101084.88
2022-08-30T18:25:24.937Z,101066.59
2022-08-30T18:27:58.356Z,101023.94
2022-08-30T18:30:33.270Z,101146.72
2022-08-30T18:33:01.253Z,101071.34
2022-08-30T18:35:27.745Z,101125.44
2022-08-30T18:37:54.434Z,101104.13
2022-08-30T18:40:21.056Z,101154.13
2022-08-30T18:42:47.655Z,101133.91
2022-08-30T18:45:17.404Z,101143.63
2022-08-30T18:47:44.870Z,101074.50
2022-08-30T18:50:12.478Z,101138.84
2022-08-30T18:52:39.120Z,101130.59
2022-08-30T18:55:07.291Z,101157.22
2022-08-30T18:57:35.005Z,101150.97
2022-08-30T19:00:03.684Z,101166.69
2022-08-30T19:02:30.123Z,101162.94
2022-08-30T19:04:56.614Z,101157.94
2022-08-30T19:07:28.907Z,101167.19
2022-08-30T19:10:12.204Z,101159.59
2022-08-30T19:12:39.187Z,101170.78
2022-08-30T19:15:10.880Z,101129.84
2022-08-30T19:17:40.081Z,101181.53
2022-08-30T19:20:09.776Z,101179.41
2022-08-30T19:23:05.895Z,101172.13
2022-08-30T19:25:24.310Z,101170.16
2022-08-30T19:27:51.502Z,101189.47
2022-08-30T19:30:25.109Z,101181.41
2022-08-30T19:32:56.010Z,101154.16
2022-08-30T19:35:22.998Z,101133.13
2022-08-30T19:37:51.009Z,101131.78
2022-08-30T19:40:22.605Z,101167.97
2022-08-30T19:42:50.294Z,101081.75
2022-08-30T19:45:18.619Z,101190.56
2022-08-30T19:47:47.827Z,101093.81
2022-08-30T19:50:15.579Z,101184.56
2022-08-30T19:52:42.756Z,101119.84
2022-08-30T19:55:10.409Z,101186.78
2022-08-30T19:57:38.960Z,101182.88
2022-08-30T20:00:09.365Z,101148.88
2022-08-30T20:02:38.737Z,101176.97
2022-08-30T20:05:05.684Z,101166.72
2022-08-30T20:07:35.389Z,101142.78
2022-08-30T20:10:11.871Z,101134.16
2022-08-30T20:12:39.837Z,101192.06
2022-08-30T20:15:14.611Z,101194.50
2022-08-30T20:18:03.363Z,101190.34
2022-08-30T20:20:33.278Z,101181.25
2022-08-30T20:23:00.453Z,101193.22
2022-08-30T20:25:28.636Z,101182.78
2022-08-30T20:27:55.544Z,101181.72
2022-08-30T20:30:22.190Z,101077.31
2022-08-30T20:32:48.650Z,101194.63
2022-08-30T20:35:16.844Z,101202.84
2022-08-30T20:37:44.299Z,101196.50
2022-08-30T20:40:15.490Z,101194.56
2022-08-30T20:42:45.270Z,101202.16
2022-08-30T20:45:14.219Z,101199.75
2022-08-30T20:47:41.701Z,101203.59
2022-08-30T20:50:14.115Z,101200.66
2022-08-30T20:52:41.170Z,101195.06
2022-08-30T20:55:09.155Z,101193.47
2022-08-30T20:57:35.862Z,101208.25
2022-08-30T21:00:02.672Z,101156.81
2022-08-30T21:02:29.429Z,101163.53
2022-08-30T21:04:55.959Z,101190.41
2022-08-30T21:07:22.604Z,101185.72
2022-08-30T21:09:50.201Z,101200.66
2022-08-30T21:12:16.738Z,101125.03
2022-08-30T21:14:43.199Z,101209.63
2022-08-30T21:17:09.958Z,101079.56
2022-08-30T21:19:38.866Z,101199.34
2022-08-30T21:22:07.654Z,101209.25
2022-08-30T21:24:34.909Z,101177.28
2022-08-30T21:27:01.502Z,101209.53
2022-08-30T21:29:29.955Z,101181.69
2022-08-30T21:31:57.273Z,101205.75
2022-08-30T21:34:24.074Z,101201.09
2022-08-30T21:36:50.762Z,101205.84
2022-08-30T21:39:23.496Z,101215.09
2022-08-30T21:41:52.996Z,101227.41
2022-08-30T21:44:22.443Z,101215.56
2022-08-30T21:46:52.082Z,101233.53
2022-08-30T21:49:21.342Z,101237.59
2022-08-30T21:51:49.461Z,101201.59
2022-08-30T21:54:18.091Z,101245.13
2022-08-30T21:56:46.966Z,101246.41
2022-08-30T21:59:13.900Z,101237.06
2022-08-30T22:01:43.136Z,101239.88
2022-08-30T22:04:11.175Z,101248.09
2022-08-30T22:06:40.189Z,101241.66
2022-08-30T22:09:09.495Z,101197.50
2022-08-30T22:11:36.799Z,101243.34
2022-08-30T22:14:05.129Z,101240.75
2022-08-30T22:16:31.630Z,101232.28
2022-08-30T22:18:58.527Z,101128.91
2022-08-30T22:21:27.648Z,101229.25
2022-08-30T22:23:54.563Z,101127.53
2022-08-30T22:26:22.679Z,101241.72
2022-08-30T22:28:50.372Z,101236.09
2022-08-30T22:31:18.761Z,101250.03
2022-08-30T22:33:46.974Z,101222.91
2022-08-30T22:36:17.256Z,101236.13
2022-08-30T22:38:44.466Z,101243.63
2022-08-30T22:41:17.083Z,101263.56
2022-08-30T22:43:44.268Z,101263.88
2022-08-30T22:46:11.586Z,101233.53
2022-08-30T22:48:40.562Z,101262.44
2022-08-30T22:51:07.954Z,101236.50
2022-08-30T22:53:36.664Z,101259.00
2022-08-30T22:56:12.384Z,101228.34
2022-08-30T22:58:39.088Z,101238.84
2022-08-30T23:01:06.527Z,101064.44
2022-08-30T23:03:36.789Z,101081.06
2022-08-30T23:06:04.087Z,101157.50
2022-08-30T23:08:30.498Z,101040.78
2022-08-30T23:10:57.881Z,101205.09
2022-08-30T23:13:24.940Z,101236.50
2022-08-30T23:15:51.468Z,101237.44
2022-08-30T23:18:17.840Z,101063.13
2022-08-30T23:20:45.402Z,101240.00
2022-08-30T23:23:30.920Z,101206.31
2022-08-30T23:26:18.775Z,101214.41
2022-08-30T23:29:04.585Z,101239.13
2022-08-30T23:31:50.035Z,101230.84
2022-08-30T23:34:35.026Z,101202.75
2022-08-30T23:37:19.949Z,101234.59
2022-08-30T23:40:04.754Z,101243.56
2022-08-30T23:42:49.713Z,101239.97
2022-08-30T23:45:34.489Z,101253.31
2022-08-30T23:48:19.555Z,101152.00
2022-08-30T23:51:04.535Z,101215.16
2022-08-30T23:53:49.238Z,101240.31
2022-08-30T23:56:34.063Z,101254.84
2022-08-30T23:59:18.807Z,101222.81
